Time;durP1;ratioP1;P1;durP2;ratioP2;P2;SDS_P1;SDS_P2;PMS_P1;PMS_P2;Temp;Humidity;BMP_temperature;BMP_pressure;BME280_temperature;BME280_humidity;BME280_pressure;Samples;Min_cycle;Max_cycle;Signal;HPM_P1;HPM_P2
2022/03/25 00:00:49;;;;;;;;;62.25;47.25;;;;;9.72;72.21;102966.63;4990720;28;11597;-71
2022/03/25 00:03:16;;;;;;;;;61.75;51.75;;;;;9.67;72.23;102968.88;5003895;28;11590;-70
2022/03/25 00:05:43;;;;;;;;;59.25;44.25;;;;;9.71;71.99;102973.03;4978756;28;12274;-69
2022/03/25 00:08:09;;;;;;;;;61.50;48.75;;;;;9.75;72.01;102968.22;4999678;28;11691;-70
2022/03/25 00:10:36;;;;;;;;;64.75;49.00;;;;;9.70;71.80;102962.34;4977787;28;11630;-69
2022/03/25 00:13:02;;;;;;;;;65.00;53.75;;;;;9.57;71.54;102967.91;5011854;28;11555;-69
2022/03/25 00:15:29;;;;;;;;;63.25;51.25;;;;;9.66;71.84;102968.97;5000833;28;11651;-71
2022/03/25 00:17:55;;;;;;;;;61.75;49.50;;;;;9.61;72.60;102971.22;4978465;28;11678;-71
2022/03/25 00:20:22;;;;;;;;;66.75;53.00;;;;;9.60;72.62;102972.22;4979644;28;11636;-69
2022/03/25 00:22:48;;;;;;;;;65.50;48.25;;;;;9.52;72.07;102971.03;4976954;28;11775;-70
2022/03/25 00:25:15;;;;;;;;;61.25;52.50;;;;;9.54;72.90;102977.16;4977402;28;11738;-70
2022/03/25 00:27:42;;;;;;;;;59.00;47.00;;;;;9.51;72.69;102974.72;4983362;28;11709;-71
2022/03/25 00:30:09;;;;;;;;;64.00;46.00;;;;;9.48;73.57;102974.97;4980940;28;11703;-69
2022/03/25 00:32:36;;;;;;;;;69.25;51.50;;;;;9.40;73.80;102969.34;4967670;28;11629;-70
2022/03/25 00:35:04;;;;;;;;;64.75;52.00;;;;;9.37;74.03;102972.31;4978715;28;11636;-69
2022/03/25 00:37:32;;;;;;;;;66.75;48.00;;;;;9.46;73.14;102966.13;4964033;28;11643;-69
2022/03/25 00:39:59;;;;;;;;;63.50;49.50;;;;;9.49;73.13;102971.28;4981049;28;11753;-69
2022/03/25 00:42:27;;;;;;;;;65.75;52.00;;;;;9.45;72.69;102972.53;4976390;28;12452;-71
2022/03/25 00:44:55;;;;;;;;;67.00;52.25;;;;;9.39;73.10;102964.91;4978416;28;11666;-69
2022/03/25 00:47:23;;;;;;;;;66.00;51.75;;;;;9.27;73.54;102970.50;4975339;28;11740;-68
2022/03/25 00:49:50;;;;;;;;;67.25;48.25;;;;;9.23;73.71;102965.38;4967228;28;12371;-68
2022/03/25 00:52:18;;;;;;;;;59.50;49.00;;;;;9.14;74.54;102966.09;4973747;28;12468;-71
2022/03/25 00:54:44;;;;;;;;;62.25;51.25;;;;;9.05;75.27;102968.72;4982843;28;11762;-70
2022/03/25 00:57:11;;;;;;;;;71.25;54.25;;;;;9.06;74.74;102965.91;4961787;28;11717;-69
2022/03/25 00:59:37;;;;;;;;;71.75;51.50;;;;;9.09;74.23;102965.63;4965095;28;11591;-71
2022/03/25 01:02:03;;;;;;;;;65.75;50.00;;;;;9.09;74.41;102964.78;4966892;28;13672;-71
2022/03/25 01:04:30;;;;;;;;;58.00;49.00;;;;;9.07;74.57;102967.63;4965117;28;11725;-71
2022/03/25 01:06:57;;;;;;;;;63.75;50.75;;;;;9.02;74.54;102966.28;4975924;28;12391;-73
2022/03/25 01:09:23;;;;;;;;;70.25;55.50;;;;;9.00;75.32;102962.84;4977695;28;11713;-70
2022/03/25 01:11:50;;;;;;;;;67.25;49.25;;;;;8.98;75.56;102965.69;4963965;28;11687;-72
2022/03/25 01:14:19;;;;;;;;;67.00;51.50;;;;;8.93;75.14;102963.38;4965488;28;11671;-69
2022/03/25 01:16:45;;;;;;;;;68.50;51.75;;;;;8.89;75.61;102969.97;4983779;28;11736;-70
2022/03/25 01:19:13;;;;;;;;;67.25;53.00;;;;;8.83;75.86;102969.63;4944469;28;11736;-70
2022/03/25 01:21:39;;;;;;;;;72.75;57.00;;;;;8.82;76.33;102973.31;4959340;28;11653;-70
2022/03/25 01:24:09;;;;;;;;;71.00;54.50;;;;;8.71;76.75;102971.50;4974693;28;11624;-71
2022/03/25 01:26:35;;;;;;;;;71.25;54.00;;;;;8.76;76.72;102971.13;4965724;28;11808;-69
2022/03/25 01:29:04;;;;;;;;;62.00;49.50;;;;;8.77;76.20;102967.44;4959639;28;11645;-71
2022/03/25 01:31:32;;;;;;;;;73.75;54.00;;;;;8.86;75.71;102967.53;4965314;28;11647;-69
2022/03/25 01:34:02;;;;;;;;;59.50;47.75;;;;;8.85;75.87;102965.81;4965049;28;11638;-69
2022/03/25 01:36:29;;;;;;;;;66.25;50.25;;;;;8.87;76.23;102954.88;4963590;28;11756;-70
2022/03/25 01:38:56;;;;;;;;;61.75;49.50;;;;;8.86;75.58;102962.13;4978461;28;11691;-70
2022/03/25 01:41:25;;;;;;;;;65.75;47.75;;;;;8.80;76.02;102964.47;4976343;28;11636;-70
2022/03/25 01:43:54;;;;;;;;;71.75;51.50;;;;;8.80;76.26;102959.09;4975544;28;11586;-69
2022/03/25 01:46:21;;;;;;;;;61.50;50.00;;;;;8.72;76.79;102961.56;4977320;28;11660;-69
2022/03/25 01:48:49;;;;;;;;;67.75;49.00;;;;;8.77;76.97;102962.91;4959916;28;11707;-70
2022/03/25 01:51:26;;;;;;;;;69.75;48.75;;;;;8.78;77.67;102959.22;4963661;28;11745;-68
2022/03/25 01:53:53;;;;;;;;;65.00;47.00;;;;;8.81;76.82;102961.66;4979605;28;11658;-68
2022/03/25 01:56:22;;;;;;;;;62.75;48.75;;;;;8.87;77.15;102965.69;4993029;28;11615;-69
2022/03/25 01:58:49;;;;;;;;;70.75;50.00;;;;;8.77;76.97;102964.75;4979320;28;11743;-69
2022/03/25 02:01:16;;;;;;;;;69.50;51.25;;;;;8.68;77.76;102971.75;4978721;28;11692;-70
2022/03/25 02:03:46;;;;;;;;;72.50;57.00;;;;;8.64;77.34;102971.13;4973901;28;11643;-71
2022/03/25 02:06:13;;;;;;;;;68.75;49.50;;;;;8.72;77.94;102966.97;4977535;28;11639;-71
2022/03/25 02:08:39;;;;;;;;;69.00;56.50;;;;;8.62;78.18;102965.00;4961569;28;11725;-69
2022/03/25 02:11:08;;;;;;;;;67.50;50.75;;;;;8.70;78.31;102955.44;4962988;28;11704;-71
2022/03/25 02:13:36;;;;;;;;;66.75;52.00;;;;;8.67;78.27;102955.66;4979641;28;12410;-71
2022/03/25 02:16:04;;;;;;;;;62.00;50.25;;;;;8.58;78.35;102966.22;4968921;28;11731;-70
2022/03/25 02:18:30;;;;;;;;;73.50;55.00;;;;;8.54;78.58;102963.91;4964857;28;12354;-69
2022/03/25 02:20:57;;;;;;;;;67.00;47.75;;;;;8.49;78.45;102955.31;4951245;28;11763;-70
2022/03/25 02:23:24;;;;;;;;;69.25;52.75;;;;;8.46;78.71;102961.81;4951735;28;11690;-70
2022/03/25 02:25:53;;;;;;;;;71.00;54.75;;;;;8.40;79.66;102954.19;4963877;28;11660;-71
2022/03/25 02:28:21;;;;;;;;;62.75;51.00;;;;;8.45;79.04;102953.84;4965707;28;11801;-70
2022/03/25 02:30:51;;;;;;;;;72.25;48.50;;;;;8.37;79.29;102953.59;4955481;28;11662;-72
2022/03/25 02:33:18;;;;;;;;;66.50;52.00;;;;;8.41;79.21;102968.56;4981374;28;12365;-69
2022/03/25 02:35:46;;;;;;;;;79.00;56.75;;;;;8.42;79.56;102963.03;4963951;28;11710;-70
2022/03/25 02:38:16;;;;;;;;;72.00;53.75;;;;;8.39;79.24;102960.56;4978086;28;11664;-71
2022/03/25 02:40:43;;;;;;;;;68.25;54.00;;;;;8.39;79.69;102955.19;4968463;28;11729;-69
2022/03/25 02:43:11;;;;;;;;;67.25;53.50;;;;;8.45;79.94;102952.00;4964708;28;11657;-70
2022/03/25 02:46:00;;;;;;;;;55.25;45.50;;;;;8.39;79.57;102960.56;4980162;28;11673;-69
2022/03/25 02:48:27;;;;;;;;;71.25;55.00;;;;;8.33;79.92;102953.84;4963464;28;11632;-69
2022/03/25 02:50:54;;;;;;;;;65.25;53.25;;;;;8.36;80.58;102950.03;4979662;28;11645;-69
2022/03/25 02:53:20;;;;;;;;;67.50;54.25;;;;;8.38;80.73;102956.16;4977359;28;11698;-70
2022/03/25 02:55:47;;;;;;;;;66.25;53.75;;;;;8.36;80.58;102954.56;4982192;28;11657;-72
2022/03/25 02:58:14;;;;;;;;;68.50;54.75;;;;;8.37;81.23;102956.28;4976563;28;11765;-70
2022/03/25 03:00:42;;;;;;;;;72.25;52.50;;;;;8.32;80.68;102952.09;4986470;28;11657;-70
2022/03/25 03:03:09;;;;;;;;;68.25;53.00;;;;;8.24;81.08;102949.16;4978183;28;11712;-70
2022/03/25 03:05:36;;;;;;;;;71.00;45.75;;;;;8.31;81.28;102941.41;4980473;28;11814;-70
2022/03/25 03:08:02;;;;;;;;;58.50;48.50;;;;;8.31;80.98;102944.13;4982207;28;12520;-71
2022/03/25 03:10:30;;;;;;;;;62.50;50.25;;;;;8.28;81.66;102952.47;4978786;28;11613;-71
2022/03/25 03:12:56;;;;;;;;;74.75;55.25;;;;;8.25;81.20;102944.63;4980758;28;11676;-71
2022/03/25 03:15:23;;;;;;;;;63.00;49.75;;;;;8.25;82.18;102941.91;4964606;28;11631;-71
2022/03/25 03:17:50;;;;;;;;;67.50;52.00;;;;;8.19;81.22;102945.97;4969151;28;11726;-72
2022/03/25 03:20:18;;;;;;;;;72.50;54.50;;;;;8.17;81.43;102950.59;4980897;28;11816;-69
2022/03/25 03:22:45;;;;;;;;;68.75;52.75;;;;;8.18;81.80;102949.66;4986423;28;11651;-68
2022/03/25 03:25:12;;;;;;;;;70.25;53.25;;;;;8.12;81.90;102950.09;4981028;28;14001;-70
2022/03/25 03:27:39;;;;;;;;;79.25;56.00;;;;;8.06;82.49;102953.28;4980302;28;11658;-69
2022/03/25 03:30:08;;;;;;;;;74.50;58.50;;;;;8.13;82.33;102956.34;4982792;28;11758;-70
2022/03/25 03:32:36;;;;;;;;;79.00;58.25;;;;;8.11;82.14;102948.38;4967684;28;11671;-70
2022/03/25 03:35:04;;;;;;;;;73.50;56.75;;;;;8.07;82.04;102946.91;4981054;28;12469;-68
2022/03/25 03:37:31;;;;;;;;;61.50;53.50;;;;;8.05;82.32;102948.03;4978611;28;11685;-69
2022/03/25 03:39:58;;;;;;;;;57.75;48.25;;;;;8.03;82.34;102943.59;4988009;28;11779;-70
2022/03/25 03:42:24;;;;;;;;;71.50;55.00;;;;;8.04;82.15;102944.47;4982983;28;11702;-68
2022/03/25 03:44:51;;;;;;;;;63.00;51.00;;;;;8.07;81.89;102944.22;4981372;28;11771;-71
2022/03/25 03:47:18;;;;;;;;;59.75;49.50;;;;;8.03;81.89;102946.31;4980269;28;11765;-70
2022/03/25 03:49:45;;;;;;;;;70.50;52.75;;;;;8.02;81.84;102946.44;4968482;28;12343;-72
2022/03/25 03:52:11;;;;;;;;;67.50;51.25;;;;;8.03;81.88;102943.59;4980527;28;11837;-70
2022/03/25 03:54:38;;;;;;;;;62.00;51.75;;;;;8.04;82.06;102952.56;4979349;28;11724;-71
2022/03/25 03:57:07;;;;;;;;;67.25;52.75;;;;;7.98;82.10;102950.34;4967979;28;11656;-71
2022/03/25 03:59:34;;;;;;;;;75.50;53.50;;;;;7.99;82.55;102943.97;4979742;28;11688;-71
2022/03/25 04:02:03;;;;;;;;;69.00;51.75;;;;;7.93;81.98;102941.75;4964525;28;11683;-72
2022/03/25 04:04:29;;;;;;;;;68.50;48.25;;;;;7.86;81.75;102944.06;4978692;28;11691;-70
2022/03/25 04:06:56;;;;;;;;;62.25;48.75;;;;;7.80;81.90;102941.00;4977729;28;11693;-70
2022/03/25 04:09:22;;;;;;;;;69.00;53.75;;;;;7.75;82.18;102940.50;4981454;28;12336;-69
2022/03/25 04:11:49;;;;;;;;;68.25;51.50;;;;;7.70;82.70;102947.09;4963277;28;12383;-69
2022/03/25 04:14:15;;;;;;;;;74.00;57.25;;;;;7.68;82.93;102946.38;4982736;28;11712;-69
2022/03/25 04:16:42;;;;;;;;;76.00;57.75;;;;;7.68;82.67;102945.47;4975803;28;11656;-70
2022/03/25 04:19:08;;;;;;;;;57.75;47.00;;;;;7.60;81.80;102950.63;4980504;28;12737;-69
2022/03/25 04:21:35;;;;;;;;;56.25;48.00;;;;;7.55;81.76;102942.88;4978865;28;11694;-68
2022/03/25 04:24:01;;;;;;;;;75.00;53.50;;;;;7.49;81.41;102940.66;4987572;28;11649;-70
2022/03/25 04:26:28;;;;;;;;;69.25;52.75;;;;;7.41;81.54;102946.63;4998296;28;11659;-69
2022/03/25 04:28:54;;;;;;;;;73.00;54.50;;;;;7.46;81.46;102950.81;4981239;28;11742;-71
2022/03/25 04:31:21;;;;;;;;;62.75;52.75;;;;;7.53;81.72;102952.06;4980426;28;11665;-71
2022/03/25 04:33:47;;;;;;;;;73.00;54.75;;;;;7.55;81.75;102956.38;4979573;28;11797;-69
2022/03/25 04:36:14;;;;;;;;;73.25;56.25;;;;;7.48;82.75;102951.56;4976459;28;12377;-69
2022/03/25 04:38:41;;;;;;;;;70.50;54.00;;;;;7.43;82.86;102957.28;4978318;28;11685;-69
2022/03/25 04:41:11;;;;;;;;;72.75;57.00;;;;;7.37;83.23;102955.06;4979862;28;11769;-69
2022/03/25 04:43:38;;;;;;;;;74.75;57.75;;;;;7.35;83.64;102962.41;4974814;28;12339;-72
2022/03/25 04:46:05;;;;;;;;;78.75;58.25;;;;;7.30;83.74;102962.75;4977779;28;11684;-70
2022/03/25 04:48:33;;;;;;;;;75.50;54.00;;;;;7.28;84.34;102956.63;4977805;28;11711;-70
2022/03/25 04:50:59;;;;;;;;;69.00;53.75;;;;;7.27;83.81;102963.00;4960568;28;11658;-69
2022/03/25 04:53:26;;;;;;;;;77.75;56.50;;;;;7.24;84.47;102956.97;4982678;28;11760;-70
2022/03/25 04:55:53;;;;;;;;;75.00;57.00;;;;;7.26;84.28;102957.72;4979050;28;11687;-69
2022/03/25 04:58:21;;;;;;;;;77.75;54.00;;;;;7.26;84.45;102963.09;4980497;28;11684;-69
2022/03/25 05:00:48;;;;;;;;;66.75;53.25;;;;;7.23;84.40;102957.94;4975763;28;11663;-69
2022/03/25 05:03:14;;;;;;;;;76.00;58.50;;;;;7.21;83.95;102962.59;4977487;28;11641;-69
2022/03/25 05:05:42;;;;;;;;;71.50;55.00;;;;;7.19;84.60;102967.22;4981846;28;11766;-71
2022/03/25 05:08:09;;;;;;;;;73.00;59.00;;;;;7.20;84.55;102968.97;4975956;23;12461;-71
2022/03/25 05:10:37;;;;;;;;;75.75;56.25;;;;;7.14;83.86;102970.25;4946301;28;12311;-71
2022/03/25 05:13:25;;;;;;;;;71.00;57.75;;;;;7.13;84.17;102973.06;4963392;28;11674;-72
2022/03/25 05:15:51;;;;;;;;;75.75;59.25;;;;;7.08;84.31;102979.66;4962122;28;11645;-71
2022/03/25 05:18:18;;;;;;;;;73.50;53.75;;;;;7.07;84.84;102977.94;4963436;28;11659;-72
2022/03/25 05:20:44;;;;;;;;;75.25;56.75;;;;;7.09;84.91;102981.38;4961754;28;11671;-70
2022/03/25 05:23:11;;;;;;;;;69.50;56.50;;;;;7.05;84.32;102977.19;4959262;28;11799;-71
2022/03/25 05:25:38;;;;;;;;;75.75;55.50;;;;;7.06;84.38;102978.06;4960913;28;12381;-70
2022/03/25 05:28:04;;;;;;;;;72.00;55.75;;;;;7.08;83.95;102974.28;4959535;28;12456;-71
2022/03/25 05:30:32;;;;;;;;;71.00;56.00;;;;;7.09;84.38;102976.00;4962835;28;11750;-72
2022/03/25 05:32:59;;;;;;;;;68.50;54.00;;;;;7.13;83.76;102979.31;4961085;28;11773;-71
2022/03/25 05:35:28;;;;;;;;;66.75;50.00;;;;;7.13;84.03;102975.75;4957848;28;11741;-70
2022/03/25 05:37:55;;;;;;;;;80.00;58.50;;;;;7.10;83.16;102983.09;4960964;28;11717;-70
2022/03/25 05:40:25;;;;;;;;;72.25;52.00;;;;;7.04;82.92;102977.31;4959990;28;11684;-70
2022/03/25 05:42:51;;;;;;;;;66.00;49.50;;;;;6.98;82.80;102980.47;4959480;28;11741;-72
2022/03/25 05:45:20;;;;;;;;;71.50;56.00;;;;;6.96;83.43;102988.66;4962817;28;11651;-71
2022/03/25 05:47:47;;;;;;;;;69.50;55.00;;;;;6.99;83.30;102985.75;4962192;28;11665;-74
2022/03/25 05:50:13;;;;;;;;;69.75;52.00;;;;;6.96;82.94;102988.66;4948119;28;11685;-73
2022/03/25 05:52:41;;;;;;;;;68.50;54.00;;;;;6.98;82.75;102997.47;4963853;28;11635;-71
2022/03/25 05:55:09;;;;;;;;;72.50;54.50;;;;;7.03;82.63;102994.44;4962675;28;11777;-70
2022/03/25 05:57:35;;;;;;;;;68.00;54.25;;;;;7.06;82.52;102996.91;4964012;28;11797;-70
2022/03/25 06:00:04;;;;;;;;;69.00;52.25;;;;;7.14;82.60;102999.88;4947367;28;11686;-72
2022/03/25 06:02:38;;;;;;;;;70.75;53.50;;;;;7.36;82.95;102996.44;4945473;28;11723;-71
2022/03/25 06:05:06;;;;;;;;;62.50;52.25;;;;;7.74;81.37;102993.56;4962259;28;11665;-72
2022/03/25 06:07:39;;;;;;;;;63.50;51.50;;;;;8.17;79.83;102995.59;4958884;28;11668;-70
2022/03/25 06:10:07;;;;;;;;;67.75;52.50;;;;;8.18;78.94;102997.31;4959495;28;11706;-73
2022/03/25 06:12:35;;;;;;;;;59.75;50.00;;;;;8.14;78.41;102991.31;4958428;28;11810;-71
2022/03/25 06:15:02;;;;;;;;;51.00;42.75;;;;;8.17;78.53;102999.16;4958445;28;11664;-70
2022/03/25 06:17:29;;;;;;;;;62.00;45.50;;;;;8.10;78.60;103000.63;4957704;28;11651;-69
2022/03/25 06:19:56;;;;;;;;;65.50;50.25;;;;;8.20;79.32;103004.34;4956792;28;11775;-70
2022/03/25 06:22:24;;;;;;;;;44.25;39.00;;;;;8.87;77.70;103015.16;4982846;28;11738;-70
2022/03/25 06:24:52;;;;;;;;;63.75;48.00;;;;;9.44;74.60;103010.53;4971494;28;11618;-71
2022/03/25 06:27:19;;;;;;;;;55.25;47.50;;;;;9.18;74.75;103015.38;4957104;28;11775;-71
2022/03/25 06:29:46;;;;;;;;;57.25;49.75;;;;;8.83;75.19;103019.09;4960918;28;12414;-70
2022/03/25 06:32:12;;;;;;;;;65.75;48.75;;;;;8.84;76.67;103020.81;4957650;28;11763;-70
2022/03/25 06:34:38;;;;;;;;;71.25;54.75;;;;;9.04;76.56;103021.06;4962861;28;11773;-72
2022/03/25 06:37:05;;;;;;;;;62.75;51.25;;;;;9.73;81.74;103022.44;4944981;28;11690;-74
2022/03/25 06:39:32;;;;;;;;;54.25;43.50;;;;;11.17;78.38;103023.38;4961041;28;11858;-71
2022/03/25 06:41:58;;;;;;;;;62.25;49.75;;;;;10.33;71.75;103029.00;4961526;28;11836;-71
2022/03/25 06:44:25;;;;;;;;;59.50;49.00;;;;;10.32;71.46;103029.13;4959915;28;11638;-69
2022/03/25 06:46:51;;;;;;;;;55.00;46.75;;;;;10.26;71.14;103030.53;4961284;28;11761;-70
2022/03/25 06:49:18;;;;;;;;;71.25;49.75;;;;;10.54;71.18;103023.56;4959162;28;11666;-70
2022/03/25 06:51:45;;;;;;;;;72.50;56.75;;;;;10.25;71.15;103027.97;4961787;28;11782;-70
2022/03/25 06:54:11;;;;;;;;;64.00;50.75;;;;;10.38;70.43;103031.31;4961456;28;11786;-70
2022/03/25 06:56:38;;;;;;;;;62.25;48.50;;;;;10.50;71.04;103035.66;4972483;28;11642;-69
2022/03/25 06:59:05;;;;;;;;;68.75;54.25;;;;;10.51;70.22;103033.81;4956784;28;11660;-70
2022/03/25 07:01:32;;;;;;;;;61.00;52.50;;;;;10.30;70.49;103039.25;4977910;28;11729;-70
2022/03/25 07:03:59;;;;;;;;;66.75;52.50;;;;;10.31;71.35;103043.66;4974131;28;11645;-69
2022/03/25 07:06:26;;;;;;;;;71.75;57.50;;;;;10.16;70.66;103038.56;4960227;28;11664;-70
2022/03/25 07:08:55;;;;;;;;;71.75;57.75;;;;;10.30;72.49;103045.53;4972828;28;11588;-70
2022/03/25 07:11:23;;;;;;;;;67.75;51.75;;;;;10.46;69.95;103045.06;4962772;28;11658;-71
2022/03/25 07:13:51;;;;;;;;;68.25;53.75;;;;;10.52;69.81;103049.06;4993626;28;11631;-70
2022/03/25 07:16:20;;;;;;;;;76.00;57.00;;;;;10.27;70.33;103053.91;4982665;28;11627;-70
2022/03/25 07:18:47;;;;;;;;;65.75;54.50;;;;;10.46;69.83;103058.59;4964819;28;11640;-70
2022/03/25 07:21:14;;;;;;;;;59.50;46.75;;;;;10.62;69.10;103056.25;4957046;28;11696;-70
2022/03/25 07:23:40;;;;;;;;;70.25;49.50;;;;;10.55;69.44;103062.34;4981815;28;11736;-71
2022/03/25 07:26:07;;;;;;;;;68.50;52.25;;;;;10.55;68.06;103065.91;4982516;28;11649;-71
2022/03/25 07:28:34;;;;;;;;;68.00;54.75;;;;;10.66;68.78;103068.53;4973691;28;11769;-70
2022/03/25 07:31:01;;;;;;;;;67.00;51.25;;;;;10.52;68.72;103074.31;4964352;28;11714;-71
2022/03/25 07:33:28;;;;;;;;;62.00;49.00;;;;;10.70;69.38;103063.72;4953427;28;11658;-72
2022/03/25 07:35:56;;;;;;;;;67.75;53.50;;;;;10.85;68.10;103070.47;4956934;28;11630;-71
2022/03/25 07:38:22;;;;;;;;;63.50;51.75;;;;;10.87;68.38;103071.19;4984561;28;11705;-71
2022/03/25 07:40:49;;;;;;;;;67.75;51.50;;;;;10.98;67.41;103079.22;4973848;28;11596;-71
2022/03/25 07:43:15;;;;;;;;;61.00;49.50;;;;;11.28;67.14;103078.31;4973526;28;11659;-70
2022/03/25 07:45:42;;;;;;;;;66.75;51.75;;;;;11.22;67.04;103088.88;4970099;28;11638;-70
2022/03/25 07:48:08;;;;;;;;;66.75;52.00;;;;;11.39;66.74;103091.75;4973663;28;11778;-70
2022/03/25 07:50:35;;;;;;;;;71.25;53.50;;;;;11.55;66.74;103088.53;4967457;28;11748;-70
2022/03/25 07:53:01;;;;;;;;;63.00;49.25;;;;;11.12;66.76;103091.53;4970830;28;11664;-71
2022/03/25 07:55:29;;;;;;;;;60.25;51.75;;;;;11.23;65.77;103090.59;4952547;28;12380;-71
2022/03/25 07:57:56;;;;;;;;;69.50;53.50;;;;;11.33;66.49;103094.19;4970637;28;11671;-71
2022/03/25 08:00:24;;;;;;;;;69.50;48.50;;;;;11.81;64.82;103088.88;4974396;28;11744;-71
2022/03/25 08:02:52;;;;;;;;;61.25;48.00;;;;;12.08;63.60;103095.44;4971765;28;11656;-70
2022/03/25 08:05:20;;;;;;;;;67.75;53.75;;;;;11.86;63.92;103099.28;4960584;28;11610;-71
2022/03/25 08:07:49;;;;;;;;;68.00;51.50;;;;;11.97;63.49;103102.75;4966011;28;11826;-72
2022/03/25 08:10:18;;;;;;;;;64.75;47.75;;;;;12.14;63.05;103105.72;4944518;28;12358;-69
2022/03/25 08:12:45;;;;;;;;;64.25;50.00;;;;;12.48;62.03;103106.97;4968453;28;11598;-69
2022/03/25 08:15:11;;;;;;;;;67.50;51.00;;;;;12.54;60.67;103111.81;4946981;28;11779;-71
2022/03/25 08:17:55;;;;;;;;;68.50;52.75;;;;;12.80;59.81;103111.19;4963871;28;11614;-70
2022/03/25 08:20:41;;;;;;;;;58.00;44.50;;;;;12.80;59.35;103117.47;4944763;28;11621;-69
2022/03/25 08:23:13;;;;;;;;;66.00;50.75;;;;;12.99;58.93;103119.28;4967634;28;11821;-70
2022/03/25 08:28:25;;;;;;;;;66.25;53.50;;;;;12.87;59.90;103112.28;4965810;28;11704;-71
2022/03/25 08:30:52;;;;;;;;;61.50;48.00;;;;;13.45;59.78;103112.09;4972993;28;12510;-71
2022/03/25 08:33:19;;;;;;;;;54.00;44.25;;;;;13.28;59.54;103112.88;4959991;28;11674;-70
2022/03/25 08:35:47;;;;;;;;;66.50;52.25;;;;;12.98;59.80;103116.72;4965180;28;11728;-71
2022/03/25 08:38:14;;;;;;;;;57.00;47.50;;;;;13.48;58.41;103115.34;4970920;28;11650;-68
2022/03/25 08:40:41;;;;;;;;;70.50;53.75;;;;;13.30;56.40;103116.31;4967620;28;12445;-69
2022/03/25 08:43:27;;;;;;;;;64.25;49.50;;;;;13.34;55.64;103125.88;4977124;28;11678;-69
2022/03/25 08:45:54;;;;;;;;;55.75;45.25;;;;;13.82;53.08;103122.84;4961134;28;11684;-69
2022/03/25 08:48:21;;;;;;;;;58.25;45.00;;;;;13.98;52.59;103127.63;4974586;28;12496;-70
2022/03/25 08:50:47;;;;;;;;;59.75;47.75;;;;;13.60;50.53;103136.91;4960177;28;11616;-70
2022/03/25 08:53:14;;;;;;;;;58.25;48.25;;;;;13.02;52.65;103131.72;4959210;28;11686;-71
2022/03/25 08:55:40;;;;;;;;;60.00;43.75;;;;;13.87;50.47;103134.13;4951344;28;12365;-70
2022/03/25 08:58:07;;;;;;;;;58.75;47.25;;;;;13.82;49.69;103141.91;4952485;28;11751;-71
2022/03/25 09:00:33;;;;;;;;;55.50;43.50;;;;;13.94;49.00;103139.84;4955920;28;11746;-71
2022/03/25 09:03:00;;;;;;;;;55.00;44.00;;;;;13.96;48.38;103140.53;4972278;28;11600;-67
2022/03/25 09:05:27;;;;;;;;;55.00;44.50;;;;;13.83;47.70;103146.34;4968131;28;11464;-70
2022/03/25 09:07:54;;;;;;;;;53.00;45.25;;;;;13.95;48.04;103138.81;4951445;28;12284;-70
2022/03/25 09:10:20;;;;;;;;;43.75;33.75;;;;;14.39;46.73;103142.47;4955827;28;11354;-70
2022/03/25 09:12:47;;;;;;;;;55.75;45.50;;;;;14.65;44.66;103137.94;4971962;28;10807;-72
2022/03/25 09:15:14;;;;;;;;;49.25;39.25;;;;;14.39;44.84;103140.59;4969244;28;11053;-71
2022/03/25 09:17:44;;;;;;;;;55.50;45.75;;;;;14.68;45.70;103140.34;4952552;28;11311;-71
2022/03/25 09:20:12;;;;;;;;;59.25;47.25;;;;;14.70;46.24;103137.44;4953848;28;11140;-70
2022/03/25 09:22:39;;;;;;;;;53.25;41.25;;;;;14.85;45.76;103145.88;4954214;28;12318;-69
2022/03/25 09:25:07;;;;;;;;;44.75;40.25;;;;;14.63;46.27;103142.69;4970658;28;11024;-69
2022/03/25 09:27:35;;;;;;;;;56.50;45.50;;;;;14.39;45.96;103140.59;4952959;28;10963;-70
2022/03/25 09:30:03;;;;;;;;;53.50;41.75;;;;;14.14;47.26;103144.13;4936526;28;12341;-72
2022/03/25 09:32:50;;;;;;;;;55.25;46.25;;;;;14.36;46.61;103140.03;4971722;28;11820;-70
2022/03/25 09:35:16;;;;;;;;;50.75;42.50;;;;;14.15;47.38;103146.69;4968508;28;11688;-70
2022/03/25 09:37:48;;;;;;;;;63.25;50.00;;;;;14.26;46.43;103152.91;4952082;28;11278;-70
2022/03/25 09:40:21;;;;;;;;;51.50;42.50;;;;;14.61;47.22;103144.69;4954594;28;11758;-69
2022/03/25 09:42:50;;;;;;;;;59.50;48.00;;;;;14.34;47.30;103142.06;4954113;28;11157;-72
2022/03/25 09:45:19;;;;;;;;;60.50;42.25;;;;;14.73;47.31;103137.97;4970665;28;11632;-70
2022/03/25 09:47:47;;;;;;;;;57.75;45.00;;;;;14.74;47.21;103138.84;4971335;28;11336;-70
2022/03/25 09:50:17;;;;;;;;;61.50;46.75;;;;;14.85;46.92;103133.09;4968616;28;11689;-72
2022/03/25 09:52:44;;;;;;;;;58.25;47.25;;;;;14.45;46.50;103139.13;4952017;28;11611;-72
2022/03/25 09:55:31;;;;;;;;;50.00;41.00;;;;;15.11;45.53;103140.41;4952356;28;11379;-69
2022/03/25 09:57:58;;;;;;;;;55.75;44.50;;;;;14.76;43.63;103140.38;4952099;28;11220;-70
2022/03/25 10:00:24;;;;;;;;;49.00;40.75;;;;;15.25;44.30;103139.81;4955881;28;11257;-71
2022/03/25 10:02:51;;;;;;;;;50.25;42.50;;;;;14.77;43.38;103136.63;4971445;28;11025;-69
2022/03/25 10:05:19;;;;;;;;;53.00;42.00;;;;;13.81;44.01;103141.06;4968168;28;11121;-70
2022/03/25 10:07:55;;;;;;;;;54.75;43.50;;;;;13.75;44.00;103146.28;4951891;29;10884;-69
2022/03/25 10:10:24;;;;;;;;;51.25;43.50;;;;;14.11;43.87;103145.25;4955237;28;11223;-70
2022/03/25 10:13:02;;;;;;;;;48.50;40.00;;;;;15.07;42.36;103138.00;4953927;28;11041;-70
2022/03/25 10:15:31;;;;;;;;;52.75;43.00;;;;;14.85;42.73;103134.97;4966889;28;11034;-69
2022/03/25 10:18:03;;;;;;;;;58.25;44.00;;;;;14.96;42.60;103141.03;4934925;29;11183;-69
2022/03/25 10:20:34;;;;;;;;;51.00;39.50;;;;;15.18;42.44;103142.34;4935324;29;11070;-70
2022/03/25 10:23:13;;;;;;;;;50.25;43.50;;;;;14.82;41.86;103143.47;4951331;29;11598;-71
2022/03/25 10:25:45;;;;;;;;;48.25;40.50;;;;;14.37;43.73;103145.31;4957634;28;11064;-70
2022/03/25 10:28:29;;;;;;;;;46.00;39.75;;;;;14.65;43.27;103135.22;4970952;28;11071;-70
2022/03/25 10:31:02;;;;;;;;;52.25;41.25;;;;;14.94;43.46;103143.06;4945031;29;11024;-70
2022/03/25 10:33:34;;;;;;;;;55.00;43.50;;;;;14.66;41.83;103145.09;4954973;28;11675;-70
2022/03/25 10:36:08;;;;;;;;;54.50;43.00;;;;;14.24;43.87;103142.16;4963984;28;11096;-70
2022/03/25 10:38:58;;;;;;;;;62.00;44.00;;;;;14.32;42.88;103139.50;4974752;28;11693;-70
2022/03/25 10:41:36;;;;;;;;;44.50;40.75;;;;;14.95;41.29;103131.13;4962146;28;11422;-70
2022/03/25 10:44:04;;;;;;;;;47.50;40.50;;;;;15.42;41.87;103138.00;4955187;28;11074;-70
2022/03/25 10:47:18;;;;;;;;;49.25;42.50;;;;;14.43;39.99;103124.81;4966341;28;11030;-71
2022/03/25 10:49:48;;;;;;;;;54.25;42.25;;;;;14.85;41.05;103135.81;4967800;28;11299;-70
2022/03/25 10:52:22;;;;;;;;;56.00;42.00;;;;;15.23;40.14;103136.38;4955266;28;11063;-70
2022/03/25 10:55:20;;;;;;;;;45.50;40.50;;;;;15.01;39.36;103138.66;4955388;28;11370;-69
2022/03/25 10:57:54;;;;;;;;;55.75;42.00;;;;;15.17;39.87;103137.91;4974616;28;11124;-70
2022/03/25 11:00:22;;;;;;;;;45.75;40.75;;;;;14.97;39.51;103140.00;4970332;28;11285;-70
2022/03/25 11:02:49;;;;;;;;;37.00;33.25;;;;;15.49;38.95;103142.63;4954717;28;10809;-69
2022/03/25 11:05:17;;;;;;;;;45.50;38.50;;;;;15.14;39.37;103132.78;4957813;28;10983;-71
2022/03/25 11:07:47;;;;;;;;;57.00;44.00;;;;;15.12;38.12;103131.19;4987117;23;11771;31
2022/03/25 11:10:17;;;;;;;;;56.00;44.50;;;;;15.57;38.31;103139.94;4913716;29;10829;-73
2022/03/25 11:12:50;;;;;;;;;42.00;38.75;;;;;15.31;38.81;103140.00;4916253;29;12065;-73
2022/03/25 11:15:19;;;;;;;;;49.25;38.25;;;;;15.16;38.75;103136.19;4914764;29;10809;-72
2022/03/25 11:17:46;;;;;;;;;52.00;41.50;;;;;15.36;39.61;103139.50;4916722;29;10743;-73
2022/03/25 11:20:15;;;;;;;;;37.25;31.50;;;;;15.54;39.33;103137.53;4916402;29;10952;-72
2022/03/25 11:22:48;;;;;;;;;44.75;38.25;;;;;15.60;39.08;103142.34;4931012;29;10472;-73